Time;durP1;ratioP1;P1;durP2;ratioP2;P2;SDS_P1;SDS_P2;PMS_P1;PMS_P2;Temp;Humidity;BMP_temperature;BMP_pressure;BME280_temperature;BME280_humidity;BME280_pressure;Samples;Min_cycle;Max_cycle;Signal;HPM_P1;HPM_P2
2023/07/12 00:00:45;;;;;;;34.00;8.95;;;;;;;;;;5013517;28;20408;-63
2023/07/12 00:03:13;;;;;;;73.65;10.85;;;;;;;;;;5012585;28;20050;-63
2023/07/12 00:05:40;;;;;;;37.78;9.68;;;;;;;;;;5013386;28;20475;-63
2023/07/12 00:08:18;;;;;;;30.00;8.75;;;;;;;;;;4992538;28;20049;-64
2023/07/12 00:10:45;;;;;;;25.88;8.48;;;;;;;;;;5008954;28;20045;-63
2023/07/12 00:13:12;;;;;;;42.50;9.85;;;;;;;;;;4995521;28;20080;-64
2023/07/12 00:15:39;;;;;;;28.15;8.43;;;;;;;;;;5013234;28;20052;-64
2023/07/12 00:18:12;;;;;;;28.90;7.90;;;;;;;;;;5013024;28;20045;-68
2023/07/12 00:20:39;;;;;;;32.80;8.63;;;;;;;;;;5013631;28;20073;-64
2023/07/12 00:23:05;;;;;;;30.60;9.20;;;;;;;;;;5013371;28;20089;-66
2023/07/12 00:25:33;;;;;;;24.88;7.63;;;;;;;;;;5009651;28;20038;-64
2023/07/12 00:28:00;;;;;;;24.38;7.70;;;;;;;;;;5013856;28;20041;-64
2023/07/12 00:30:28;;;;;;;38.35;7.95;;;;;;;;;;5013557;28;20133;-65
2023/07/12 00:32:57;;;;;;;32.65;7.70;;;;;;;;;;5013483;28;20092;-64
2023/07/12 00:35:26;;;;;;;30.67;8.00;;;;;;;;;;4995030;28;20553;-64
2023/07/12 00:37:54;;;;;;;27.17;7.28;;;;;;;;;;5013245;28;20452;-64
2023/07/12 00:40:27;;;;;;;38.55;8.45;;;;;;;;;;4988004;28;20142;-64
2023/07/12 00:42:57;;;;;;;11.13;6.20;;;;;;;;;;5012573;28;20042;-64
2023/07/12 00:45:25;;;;;;;74.38;10.73;;;;;;;;;;5013019;28;20271;-64
2023/07/12 00:47:52;;;;;;;29.63;7.68;;;;;;;;;;5013830;28;20082;-63
2023/07/12 00:50:20;;;;;;;41.55;8.43;;;;;;;;;;4994466;28;20061;-65
2023/07/12 00:52:46;;;;;;;23.15;7.22;;;;;;;;;;4993314;28;20546;-64
2023/07/12 00:55:32;;;;;;;35.88;8.02;;;;;;;;;;5011513;28;20053;-63
2023/07/12 00:57:58;;;;;;;21.88;7.30;;;;;;;;;;5009580;28;20052;-63
2023/07/12 01:00:25;;;;;;;66.10;9.50;;;;;;;;;;4994960;28;20437;-64
2023/07/12 01:02:52;;;;;;;29.08;7.20;;;;;;;;;;4999120;28;20550;-64
2023/07/12 01:05:19;;;;;;;25.95;6.88;;;;;;;;;;4975094;28;20074;-64
2023/07/12 01:07:46;;;;;;;29.10;7.68;;;;;;;;;;4991574;28;20062;-63
2023/07/12 01:10:12;;;;;;;34.85;7.35;;;;;;;;;;4992873;28;20049;-63
2023/07/12 01:12:39;;;;;;;34.83;7.53;;;;;;;;;;4993132;28;20486;-63
2023/07/12 01:15:08;;;;;;;29.05;7.80;;;;;;;;;;4992494;28;20050;-66
2023/07/12 01:17:34;;;;;;;21.50;7.20;;;;;;;;;;4993604;28;20052;-65
2023/07/12 01:20:01;;;;;;;28.98;7.65;;;;;;;;;;4975312;28;20374;-64
2023/07/12 01:22:28;;;;;;;32.30;8.20;;;;;;;;;;4992844;28;20070;-64
2023/07/12 01:24:55;;;;;;;39.67;8.20;;;;;;;;;;4992877;28;20419;-65
2023/07/12 01:27:24;;;;;;;68.10;10.95;;;;;;;;;;4975219;28;20478;-64
2023/07/12 01:29:51;;;;;;;33.33;8.27;;;;;;;;;;4985275;28;20117;-65
2023/07/12 01:32:18;;;;;;;28.45;7.95;;;;;;;;;;4991364;28;20407;-64
2023/07/12 01:34:45;;;;;;;34.83;7.95;;;;;;;;;;4974147;28;20480;-65
2023/07/12 01:37:13;;;;;;;22.95;7.65;;;;;;;;;;4992244;28;20046;-65
2023/07/12 01:39:39;;;;;;;37.58;8.77;;;;;;;;;;4975144;28;20096;-64
2023/07/12 01:42:06;;;;;;;21.88;7.82;;;;;;;;;;4993157;28;20089;-70
2023/07/12 01:44:33;;;;;;;32.10;8.52;;;;;;;;;;4992748;28;20042;-65
2023/07/12 01:47:00;;;;;;;37.35;8.65;;;;;;;;;;4992553;28;20472;-65
2023/07/12 01:49:26;;;;;;;35.00;9.05;;;;;;;;;;4992234;28;20543;-63
2023/07/12 01:51:53;;;;;;;34.22;7.95;;;;;;;;;;4971388;28;20138;-64
2023/07/12 01:54:20;;;;;;;55.80;9.95;;;;;;;;;;4974663;28;20046;-64
2023/07/12 01:56:46;;;;;;;27.58;8.63;;;;;;;;;;4991154;28;20046;-64
2023/07/12 01:59:13;;;;;;;21.85;7.65;;;;;;;;;;4990159;28;20141;-63
2023/07/12 02:01:40;;;;;;;243.48;21.75;;;;;;;;;;5082465;22;20037;-59
2023/07/12 02:04:08;;;;;;;27.25;7.93;;;;;;;;;;5063630;28;20036;-59
2023/07/12 02:06:35;;;;;;;57.15;10.40;;;;;;;;;;5052160;28;20051;-59
2023/07/12 02:09:02;;;;;;;36.63;8.73;;;;;;;;;;5060448;28;20095;-59
2023/07/12 02:11:32;;;;;;;33.92;9.52;;;;;;;;;;5061560;28;20102;-60
2023/07/12 02:13:59;;;;;;;47.83;9.57;;;;;;;;;;5040942;28;20040;-59
2023/07/12 02:16:26;;;;;;;43.60;8.68;;;;;;;;;;5063762;28;20052;-61
2023/07/12 02:18:53;;;;;;;52.33;8.85;;;;;;;;;;5061559;28;20398;-60
2023/07/12 02:21:20;;;;;;;77.70;11.20;;;;;;;;;;5034833;28;20083;-59
2023/07/12 02:23:47;;;;;;;28.20;8.07;;;;;;;;;;5061659;28;20057;-59
2023/07/12 02:26:14;;;;;;;26.27;7.97;;;;;;;;;;5060888;28;20411;-60
2023/07/12 02:28:41;;;;;;;37.47;8.63;;;;;;;;;;5063796;28;20098;-59
2023/07/12 02:31:13;;;;;;;30.45;8.95;;;;;;;;;;5060215;28;20036;-60
2023/07/12 02:33:40;;;;;;;39.50;9.32;;;;;;;;;;5045223;28;20047;-59
2023/07/12 02:36:07;;;;;;;55.10;10.32;;;;;;;;;;5041741;28;20053;-63
2023/07/12 02:38:34;;;;;;;56.05;10.68;;;;;;;;;;5052351;28;20059;-59
2023/07/12 02:41:01;;;;;;;35.45;9.07;;;;;;;;;;5051513;28;20052;-59
2023/07/12 02:43:28;;;;;;;53.20;10.15;;;;;;;;;;5064924;28;20045;-59
2023/07/12 02:45:55;;;;;;;42.85;9.75;;;;;;;;;;5061939;28;20094;-59
2023/07/12 02:48:22;;;;;;;86.97;12.88;;;;;;;;;;5034736;28;20049;-64
2023/07/12 02:50:49;;;;;;;45.25;10.40;;;;;;;;;;5061071;28;20129;-59
2023/07/12 02:53:17;;;;;;;34.60;8.98;;;;;;;;;;5051148;28;20420;-59
2023/07/12 02:55:47;;;;;;;38.80;9.38;;;;;;;;;;5057946;28;20135;-60
2023/07/12 02:58:14;;;;;;;39.85;9.80;;;;;;;;;;5060510;28;20787;-61
2023/07/12 03:00:41;;;;;;;54.03;10.57;;;;;;;;;;5061771;28;20167;-62
2023/07/12 03:03:09;;;;;;;28.70;9.50;;;;;;;;;;5059868;28;20498;-61
2023/07/12 03:05:37;;;;;;;30.83;8.68;;;;;;;;;;5063951;28;20482;-61
2023/07/12 03:08:04;;;;;;;22.95;8.43;;;;;;;;;;5060919;28;20120;-59
2023/07/12 03:10:31;;;;;;;37.50;9.98;;;;;;;;;;5064104;28;20099;-60
2023/07/12 03:12:58;;;;;;;35.75;8.93;;;;;;;;;;5060084;28;20125;-62
2023/07/12 03:15:25;;;;;;;84.20;12.32;;;;;;;;;;5061475;28;20047;-61
2023/07/12 03:17:52;;;;;;;38.83;9.98;;;;;;;;;;5061042;28;20505;-60
2023/07/12 03:20:19;;;;;;;43.45;9.70;;;;;;;;;;5040036;28;20383;-59
2023/07/12 03:22:46;;;;;;;32.50;8.82;;;;;;;;;;5055625;28;20071;-60
2023/07/12 03:25:13;;;;;;;34.80;9.10;;;;;;;;;;5050647;28;20063;-59
2023/07/12 03:27:40;;;;;;;57.50;10.40;;;;;;;;;;5060678;28;20053;-61
2023/07/12 03:30:08;;;;;;;40.25;9.10;;;;;;;;;;5059772;28;20045;-60
2023/07/12 03:32:36;;;;;;;38.47;8.98;;;;;;;;;;5064738;28;20048;-60
2023/07/12 03:35:03;;;;;;;25.23;7.47;;;;;;;;;;5058740;28;20406;-59
2023/07/12 03:37:30;;;;;;;29.25;8.40;;;;;;;;;;5059593;28;20040;-60
2023/07/12 03:39:57;;;;;;;36.85;9.20;;;;;;;;;;5057676;28;20571;-60
2023/07/12 03:42:24;;;;;;;91.15;11.60;;;;;;;;;;5060014;28;20062;-61
2023/07/12 03:44:51;;;;;;;48.38;9.40;;;;;;;;;;5051559;28;20048;-59
2023/07/12 03:47:18;;;;;;;35.67;9.10;;;;;;;;;;5061892;28;20135;-59
2023/07/12 03:49:48;;;;;;;38.83;8.48;;;;;;;;;;5048682;28;20407;-59
2023/07/12 03:52:15;;;;;;;63.35;10.23;;;;;;;;;;5063463;28;20052;-60
2023/07/12 03:54:42;;;;;;;39.35;8.55;;;;;;;;;;5049191;28;20102;-59
2023/07/12 03:57:09;;;;;;;47.13;9.32;;;;;;;;;;5052182;28;20049;-61
2023/07/12 03:59:36;;;;;;;97.20;12.45;;;;;;;;;;5045595;28;20498;-60
2023/07/12 04:02:04;;;;;;;53.70;10.30;;;;;;;;;;5058832;28;20056;-59
2023/07/12 04:04:31;;;;;;;36.28;9.05;;;;;;;;;;5062428;28;20682;-59
2023/07/12 04:07:00;;;;;;;41.03;8.38;;;;;;;;;;5041822;28;20044;-61
2023/07/12 04:09:27;;;;;;;86.30;11.82;;;;;;;;;;5061066;28;20045;-59
2023/07/12 04:11:54;;;;;;;44.97;9.07;;;;;;;;;;5054825;28;20056;-59
2023/07/12 04:14:21;;;;;;;51.55;9.43;;;;;;;;;;5066867;28;20123;-60
2023/07/12 04:16:48;;;;;;;47.80;9.30;;;;;;;;;;5051553;28;20439;-61
2023/07/12 04:19:15;;;;;;;69.85;9.00;;;;;;;;;;5069182;28;20040;-61
2023/07/12 04:21:42;;;;;;;42.00;8.95;;;;;;;;;;5046801;28;20040;-59
2023/07/12 04:24:09;;;;;;;42.38;8.15;;;;;;;;;;5064632;28;20502;-63
2023/07/12 04:26:37;;;;;;;30.13;7.18;;;;;;;;;;5064080;28;20528;-60
2023/07/12 04:29:05;;;;;;;27.77;7.60;;;;;;;;;;5062092;28;20482;-59
2023/07/12 04:31:32;;;;;;;33.08;8.05;;;;;;;;;;5062627;28;20045;-61
2023/07/12 04:33:59;;;;;;;47.70;8.55;;;;;;;;;;5066840;28;20053;-59
2023/07/12 04:36:27;;;;;;;81.60;10.38;;;;;;;;;;5065467;28;20748;-61
2023/07/12 04:38:54;;;;;;;29.23;6.75;;;;;;;;;;5053496;28;20073;-61
2023/07/12 04:41:21;;;;;;;37.45;8.00;;;;;;;;;;5053224;28;20152;-59
2023/07/12 04:43:48;;;;;;;29.42;6.60;;;;;;;;;;5061014;28;20037;-60
2023/07/12 04:46:15;;;;;;;37.08;7.38;;;;;;;;;;5042795;28;20052;-60
2023/07/12 04:48:42;;;;;;;132.93;12.30;;;;;;;;;;5052732;28;20462;-61
2023/07/12 04:51:09;;;;;;;49.42;8.32;;;;;;;;;;5064020;28;20048;-60
2023/07/12 04:53:37;;;;;;;28.20;6.22;;;;;;;;;;5051228;28;20518;-62
2023/07/12 04:56:04;;;;;;;36.40;6.85;;;;;;;;;;5061633;28;20041;-59
2023/07/12 04:58:31;;;;;;;57.28;8.25;;;;;;;;;;5051909;28;20462;-60
2023/07/12 05:00:58;;;;;;;39.88;7.60;;;;;;;;;;5066059;28;20048;-60
2023/07/12 05:03:26;;;;;;;60.08;7.95;;;;;;;;;;5064000;28;20057;-62
2023/07/12 05:05:56;;;;;;;20.92;6.47;;;;;;;;;;5060878;28;20410;-62
2023/07/12 05:08:29;;;;;;;45.38;7.18;;;;;;;;;;5055740;28;20055;-59
2023/07/12 05:10:57;;;;;;;30.27;6.25;;;;;;;;;;5050748;28;20052;-59
2023/07/12 05:13:24;;;;;;;49.03;7.45;;;;;;;;;;5042600;28;20045;-60
2023/07/12 05:15:52;;;;;;;44.88;7.60;;;;;;;;;;5064447;28;20036;-60
2023/07/12 05:18:19;;;;;;;85.07;9.95;;;;;;;;;;5053389;28;20072;-60
2023/07/12 05:20:48;;;;;;;36.75;6.55;;;;;;;;;;5058785;28;20048;-59
2023/07/12 05:23:15;;;;;;;32.25;6.38;;;;;;;;;;5065760;28;20040;-60
2023/07/12 05:25:52;;;;;;;32.22;5.70;;;;;;;;;;5061880;28;20048;-62
2023/07/12 05:28:20;;;;;;;42.70;6.40;;;;;;;;;;5044379;28;20513;-60
2023/07/12 05:30:48;;;;;;;50.70;6.88;;;;;;;;;;5051604;28;20091;-60
2023/07/12 05:33:15;;;;;;;58.97;7.80;;;;;;;;;;5053494;28;20490;-60
2023/07/12 05:35:42;;;;;;;29.92;5.72;;;;;;;;;;5063216;28;20041;-61
2023/07/12 05:38:09;;;;;;;28.15;5.65;;;;;;;;;;5064318;28;20094;-60
2023/07/12 05:40:37;;;;;;;35.55;6.18;;;;;;;;;;5061186;28;20051;-59
2023/07/12 05:43:04;;;;;;;15.75;4.93;;;;;;;;;;5052979;28;20056;-60
2023/07/12 05:45:31;;;;;;;66.22;8.07;;;;;;;;;;5052360;28;20052;-60
2023/07/12 05:47:58;;;;;;;43.03;6.38;;;;;;;;;;5061291;28;20059;-60
2023/07/12 05:50:26;;;;;;;33.75;5.95;;;;;;;;;;5066537;28;20064;-61
2023/07/12 05:52:53;;;;;;;43.70;6.45;;;;;;;;;;5059303;28;20033;-61
2023/07/12 05:55:20;;;;;;;49.38;6.30;;;;;;;;;;5061330;28;20033;-59
2023/07/12 05:57:48;;;;;;;50.35;6.57;;;;;;;;;;5051628;28;20047;-59
2023/07/12 06:00:17;;;;;;;69.88;7.82;;;;;;;;;;5052498;28;20482;-60
2023/07/12 06:02:44;;;;;;;218.23;17.55;;;;;;;;;;5033823;28;20111;-60
2023/07/12 06:05:12;;;;;;;30.52;5.68;;;;;;;;;;5050649;28;20060;-61
2023/07/12 06:07:39;;;;;;;33.55;5.45;;;;;;;;;;5061100;28;20370;-61
2023/07/12 06:10:06;;;;;;;24.85;4.60;;;;;;;;;;5040697;28;20129;-61
2023/07/12 06:12:33;;;;;;;67.85;7.20;;;;;;;;;;5043269;28;20041;-61
2023/07/12 06:15:00;;;;;;;41.35;6.13;;;;;;;;;;5043274;28;20045;-60
2023/07/12 06:17:29;;;;;;;35.08;5.03;;;;;;;;;;5062068;28;20061;-61
2023/07/12 06:19:56;;;;;;;44.03;6.47;;;;;;;;;;5041845;28;20041;-60
2023/07/12 06:22:23;;;;;;;62.42;7.28;;;;;;;;;;5043028;28;20552;-62
2023/07/12 06:24:52;;;;;;;61.25;7.25;;;;;;;;;;5063554;28;20123;-62
2023/07/12 06:27:20;;;;;;;151.98;12.43;;;;;;;;;;5051258;28;20382;-62
2023/07/12 06:29:47;;;;;;;60.60;6.95;;;;;;;;;;5041879;28;20087;-60
2023/07/12 06:32:14;;;;;;;41.50;6.03;;;;;;;;;;5031959;28;20383;-61
2023/07/12 06:34:42;;;;;;;39.40;5.47;;;;;;;;;;5049247;28;20450;-61
2023/07/12 06:37:09;;;;;;;57.50;6.93;;;;;;;;;;5061991;28;20124;-59
2023/07/12 06:39:36;;;;;;;46.38;6.20;;;;;;;;;;5061051;28;20090;-61
2023/07/12 06:42:04;;;;;;;31.20;5.30;;;;;;;;;;5061088;28;20106;-59
2023/07/12 06:44:32;;;;;;;58.00;6.97;;;;;;;;;;5048901;28;20601;-60
2023/07/12 06:46:59;;;;;;;44.33;6.05;;;;;;;;;;5061306;28;20048;-60
2023/07/12 06:49:26;;;;;;;89.05;8.10;;;;;;;;;;5058590;28;20052;-60
2023/07/12 06:51:53;;;;;;;46.13;6.10;;;;;;;;;;5059837;28;20055;-61
2023/07/12 06:54:21;;;;;;;100.45;9.25;;;;;;;;;;5060821;28;20135;-61
2023/07/12 06:56:48;;;;;;;39.78;6.05;;;;;;;;;;5049300;28;20048;-59
2023/07/12 06:59:15;;;;;;;36.00;5.18;;;;;;;;;;5034326;28;20102;-60
2023/07/12 07:01:42;;;;;;;54.75;7.00;;;;;;;;;;5049414;28;21678;-61
2023/07/12 07:04:10;;;;;;;32.22;5.68;;;;;;;;;;5041519;28;20069;-60
2023/07/12 07:06:37;;;;;;;56.67;7.10;;;;;;;;;;5060956;28;20036;-60
2023/07/12 07:09:04;;;;;;;32.75;5.03;;;;;;;;;;5060477;28;20052;-58
2023/07/12 07:11:31;;;;;;;57.58;6.10;;;;;;;;;;5059801;28;20139;-60
2023/07/12 07:13:59;;;;;;;40.17;6.05;;;;;;;;;;5063097;28;20048;-58
2023/07/12 07:16:27;;;;;;;63.75;7.68;;;;;;;;;;5042037;28;20049;-59
2023/07/12 07:18:57;;;;;;;46.28;6.07;;;;;;;;;;5051317;28;20127;-59
2023/07/12 07:21:24;;;;;;;98.47;9.52;;;;;;;;;;5051048;28;20056;-58
2023/07/12 07:23:51;;;;;;;50.72;6.63;;;;;;;;;;5049062;28;20049;-58
2023/07/12 07:26:19;;;;;;;43.20;5.82;;;;;;;;;;5040782;28;20510;-58
2023/07/12 07:28:46;;;;;;;36.92;5.97;;;;;;;;;;5049308;28;20048;-58
2023/07/12 07:31:13;;;;;;;240.25;15.93;;;;;;;;;;5060486;28;20386;-57
2023/07/12 07:33:40;;;;;;;70.38;10.52;;;;;;;;;;5047570;28;20041;-58
2023/07/12 07:36:08;;;;;;;58.83;9.23;;;;;;;;;;5060433;28;20045;-58
2023/07/12 07:38:36;;;;;;;50.45;7.35;;;;;;;;;;5060612;28;20043;-58
2023/07/12 07:41:05;;;;;;;44.90;6.93;;;;;;;;;;5062979;28;20045;-60
2023/07/12 07:43:33;;;;;;;42.53;6.18;;;;;;;;;;5049268;28;20138;-58
2023/07/12 07:46:00;;;;;;;41.53;6.20;;;;;;;;;;5054830;28;20094;-60
2023/07/12 07:48:27;;;;;;;113.47;11.20;;;;;;;;;;5068170;28;20510;-59
2023/07/12 07:50:54;;;;;;;111.95;9.90;;;;;;;;;;5070555;28;20045;-61
2023/07/12 07:53:21;;;;;;;57.35;7.45;;;;;;;;;;5046936;28;20118;-60
2023/07/12 07:55:48;;;;;;;49.05;7.05;;;;;;;;;;5064151;28;20040;-60
2023/07/12 07:58:16;;;;;;;38.10;6.53;;;;;;;;;;5051697;28;20474;-69
2023/07/12 08:00:44;;;;;;;63.40;8.18;;;;;;;;;;5064091;28;20401;-59
2023/07/12 08:03:14;;;;;;;50.75;6.38;;;;;;;;;;5065319;28;20048;-65
2023/07/12 08:05:41;;;;;;;32.80;6.05;;;;;;;;;;5049053;28;20405;-61
2023/07/12 08:08:08;;;;;;;21.88;4.80;;;;;;;;;;5055235;28;20041;-59
2023/07/12 08:10:35;;;;;;;42.33;6.00;;;;;;;;;;5062119;28;20062;-60
2023/07/12 08:13:03;;;;;;;50.22;7.10;;;;;;;;;;5065658;28;20466;-59
2023/07/12 08:15:30;;;;;;;71.22;8.07;;;;;;;;;;5054754;28;20486;-59
2023/07/12 08:17:57;;;;;;;43.17;6.30;;;;;;;;;;5066780;28;20071;-59
2023/07/12 08:20:25;;;;;;;84.53;9.40;;;;;;;;;;5062609;28;20044;-60
2023/07/12 08:22:52;;;;;;;32.10;5.75;;;;;;;;;;5035450;28;20066;-59
2023/07/12 08:25:21;;;;;;;42.08;6.20;;;;;;;;;;5067380;28;20482;-58
2023/07/12 08:27:48;;;;;;;35.15;5.60;;;;;;;;;;5046846;28;20036;-60
2023/07/12 08:30:15;;;;;;;30.98;5.57;;;;;;;;;;5052947;28;20402;-63
2023/07/12 08:32:41;;;;;;;45.20;6.30;;;;;;;;;;5062631;28;20450;-63
2023/07/12 08:35:09;;;;;;;36.60;6.45;;;;;;;;;;5064403;28;20040;-63
2023/07/12 08:37:36;;;;;;;41.40;5.85;;;;;;;;;;5047666;28;20048;-62
2023/07/12 08:40:04;;;;;;;40.22;6.10;;;;;;;;;;5053091;28;20468;-59
2023/07/12 08:42:41;;;;;;;87.40;9.55;;;;;;;;;;5063823;28;20036;-58
2023/07/12 08:45:23;;;;;;;34.08;6.03;;;;;;;;;;5064446;28;20494;-62
2023/07/12 08:47:51;;;;;;;14.20;4.18;;;;;;;;;;5062986;28;20045;-59
2023/07/12 08:50:18;;;;;;;48.60;6.28;;;;;;;;;;5067805;28;20069;-59
2023/07/12 08:52:45;;;;;;;49.50;7.13;;;;;;;;;;5051394;28;20135;-58
2023/07/12 08:55:14;;;;;;;40.50;6.28;;;;;;;;;;5063858;28;20048;-60
2023/07/12 08:57:41;;;;;;;32.03;5.30;;;;;;;;;;5064167;28;20098;-59
2023/07/12 09:00:10;;;;;;;28.60;4.95;;;;;;;;;;5064043;28;20112;-58
2023/07/12 09:02:38;;;;;;;41.75;6.57;;;;;;;;;;5065484;28;20064;-59
2023/07/12 09:05:10;;;;;;;42.22;5.95;;;;;;;;;;5065450;28;20048;-60
2023/07/12 09:07:37;;;;;;;79.28;7.97;;;;;;;;;;5053034;28;20056;-58
2023/07/12 09:10:05;;;;;;;38.45;5.43;;;;;;;;;;5063261;28;20037;-59
2023/07/12 09:12:34;;;;;;;104.00;10.10;;;;;;;;;;5052836;28;20053;-60
2023/07/12 09:15:07;;;;;;;54.53;6.45;;;;;;;;;;5052602;28;20130;-63
2023/07/12 09:17:38;;;;;;;18.73;4.57;;;;;;;;;;5050526;28;20044;-58
2023/07/12 09:20:26;;;;;;;37.60;6.13;;;;;;;;;;5044528;28;20048;-59
2023/07/12 09:22:54;;;;;;;56.20;5.55;;;;;;;;;;5048892;28;20052;-59
2023/07/12 09:25:25;;;;;;;38.42;5.65;;;;;;;;;;5052057;28;20052;-60
2023/07/12 09:27:53;;;;;;;52.63;6.13;;;;;;;;;;5063590;28;20037;-58
2023/07/12 09:30:22;;;;;;;77.43;7.57;;;;;;;;;;5066109;28;20048;-59
2023/07/12 09:32:49;;;;;;;40.78;5.35;;;;;;;;;;5051869;28;20100;-60
2023/07/12 09:35:28;;;;;;;32.97;4.90;;;;;;;;;;5061145;28;20119;-58
2023/07/12 09:37:56;;;;;;;57.53;6.72;;;;;;;;;;5065482;28;20060;-59
2023/07/12 09:40:23;;;;;;;54.25;6.22;;;;;;;;;;5061666;28;20048;-60
2023/07/12 09:42:55;;;;;;;39.65;5.35;;;;;;;;;;5052934;28;20048;-60
2023/07/12 09:45:24;;;;;;;90.85;8.93;;;;;;;;;;5060874;28;20045;-62
2023/07/12 09:48:01;;;;;;;52.20;6.28;;;;;;;;;;5062658;28;20049;-59
2023/07/12 09:50:39;;;;;;;45.88;6.18;;;;;;;;;;5064011;28;20052;-61
2023/07/12 09:53:15;;;;;;;34.97;4.82;;;;;;;;;;5068262;28;20040;-59
2023/07/12 09:55:49;;;;;;;31.73;4.85;;;;;;;;;;5053047;28;20052;-59
2023/07/12 09:58:23;;;;;;;35.80;5.22;;;;;;;;;;5053267;28;20036;-58
2023/07/12 10:00:55;;;;;;;37.17;4.88;;;;;;;;;;5044307;28;20048;-58
2023/07/12 10:03:35;;;;;;;71.80;8.27;;;;;;;;;;5059553;28;20057;-59
2023/07/12 10:06:15;;;;;;;26.38;4.07;;;;;;;;;;5031491;28;20063;-61
2023/07/12 10:08:46;;;;;;;25.55;4.40;;;;;;;;;;5062713;28;20040;-59
2023/07/12 10:11:16;;;;;;;33.65;5.35;;;;;;;;;;5061698;28;20147;-58
2023/07/12 10:13:45;;;;;;;25.38;3.97;;;;;;;;;;5061648;28;20109;-60
2023/07/12 10:16:15;;;;;;;48.70;6.43;;;;;;;;;;5051279;28;20123;-61
2023/07/12 10:18:43;;;;;;;40.88;5.57;;;;;;;;;;5063370;28;20044;-60
2023/07/12 10:21:13;;;;;;;40.92;5.50;;;;;;;;;;5063181;28;20053;-59
2023/07/12 10:23:43;;;;;;;35.92;5.05;;;;;;;;;;5063825;28;20040;-59
2023/07/12 10:26:11;;;;;;;21.15;4.72;;;;;;;;;;5066699;28;20052;-58
2023/07/12 10:28:38;;;;;;;234.70;15.38;;;;;;;;;;5064302;28;20048;-58
2023/07/12 10:31:08;;;;;;;114.43;9.98;;;;;;;;;;5060370;28;20044;-59
2023/07/12 10:33:40;;;;;;;71.00;6.75;;;;;;;;;;5041979;28;28904;-60
2023/07/12 10:36:11;;;;;;;38.10;4.95;;;;;;;;;;5062394;28;20107;-59
2023/07/12 10:38:38;;;;;;;20.77;4.07;;;;;;;;;;5060439;28;20041;-58
2023/07/12 10:41:18;;;;;;;46.05;6.60;;;;;;;;;;5064281;28;20048;-59
2023/07/12 10:43:49;;;;;;;192.93;11.23;;;;;;;;;;5042611;28;20032;-59
2023/07/12 10:46:22;;;;;;;29.42;4.25;;;;;;;;;;5052913;28;20082;-60
2023/07/12 10:48:49;;;;;;;148.73;10.38;;;;;;;;;;5063381;28;20032;-58
2023/07/12 10:51:16;;;;;;;392.15;25.90;;;;;;;;;;5061524;28;20135;-64
2023/07/12 10:53:48;;;;;;;38.88;5.63;;;;;;;;;;5052936;28;20044;-60
2023/07/12 10:56:17;;;;;;;29.23;5.03;;;;;;;;;;5058996;28;20033;-57
2023/07/12 10:58:45;;;;;;;21.55;3.90;;;;;;;;;;5050225;28;20110;-57
2023/07/12 11:01:30;;;;;;;28.27;4.97;;;;;;;;;;5065355;28;20037;-58
2023/07/12 11:04:16;;;;;;;34.33;5.22;;;;;;;;;;5029180;28;20052;-58
2023/07/12 11:07:03;;;;;;;33.95;5.22;;;;;;;;;;5041268;28;20402;-58
2023/07/12 11:09:45;;;;;;;100.78;9.35;;;;;;;;;;5025279;28;20055;-62
2023/07/12 11:12:18;;;;;;;38.80;5.70;;;;;;;;;;5042036;28;20091;-60
2023/07/12 11:14:49;;;;;;;37.40;5.25;;;;;;;;;;5045661;28;20119;-59
2023/07/12 11:17:21;;;;;;;41.50;5.77;;;;;;;;;;5046473;28;20120;-59
2023/07/12 11:20:03;;;;;;;52.85;7.32;;;;;;;;;;5034274;28;20390;-60
2023/07/12 11:22:51;;;;;;;53.25;6.47;;;;;;;;;;5035222;28;20091;-60
2023/07/12 11:25:36;;;;;;;27.40;5.68;;;;;;;;;;5051627;28;20462;-59
2023/07/12 11:28:03;;;;;;;35.50;6.10;;;;;;;;;;5034306;28;20041;-60
2023/07/12 11:30:33;;;;;;;67.95;8.73;;;;;;;;;;5036284;28;20052;-61
2023/07/12 11:33:18;;;;;;;25.15;4.93;;;;;;;;;;5029341;28;20060;-61
2023/07/12 11:35:47;;;;;;;43.50;6.47;;;;;;;;;;5029607;28;20384;-61
2023/07/12 11:38:16;;;;;;;23.85;4.68;;;;;;;;;;5045748;28;20542;-61
2023/07/12 11:40:43;;;;;;;15.25;4.32;;;;;;;;;;5046077;28;20107;-61
2023/07/12 11:43:37;;;;;;;64.70;7.38;;;;;;;;;;5036128;28;20040;-63
2023/07/12 11:46:10;;;;;;;47.80;6.20;;;;;;;;;;5042197;28;20052;-60
2023/07/12 11:48:44;;;;;;;134.30;12.10;;;;;;;;;;5030874;28;22339;-60
2023/07/12 11:51:17;;;;;;;67.80;7.07;;;;;;;;;;5033422;28;20045;-61
2023/07/12 11:53:52;;;;;;;31.90;5.53;;;;;;;;;;5044129;28;20128;-62
2023/07/12 11:56:20;;;;;;;135.90;12.73;;;;;;;;;;5015441;28;20084;-62
2023/07/12 11:58:48;;;;;;;47.83;6.85;;;;;;;;;;5046898;28;20041;-63
2023/07/12 12:01:17;;;;;;;35.30;6.07;;;;;;;;;;5044031;28;20363;-60
2023/07/12 12:03:47;;;;;;;53.40;6.70;;;;;;;;;;5063628;28;20494;-61
2023/07/12 12:06:14;;;;;;;51.92;6.78;;;;;;;;;;5064472;28;20060;-63
2023/07/12 12:08:44;;;;;;;38.05;6.18;;;;;;;;;;5052503;28;20041;-62
2023/07/12 12:11:11;;;;;;;39.13;6.50;;;;;;;;;;5067180;28;20052;-64
2023/07/12 12:13:42;;;;;;;40.42;6.55;;;;;;;;;;5061461;28;20152;-60
2023/07/12 12:16:25;;;;;;;76.45;7.55;;;;;;;;;;5055221;28;20594;-63
2023/07/12 12:18:57;;;;;;;200.25;15.35;;;;;;;;;;5064975;28;20032;-62
2023/07/12 12:21:25;;;;;;;82.22;9.77;;;;;;;;;;5052647;28;20041;-61
2023/07/12 12:23:53;;;;;;;34.30;6.05;;;;;;;;;;5065465;28;20041;-61
2023/07/12 12:26:28;;;;;;;42.05;6.57;;;;;;;;;;5053055;28;20064;-61
2023/07/12 12:29:07;;;;;;;28.08;5.75;;;;;;;;;;5058922;28;20509;-60
2023/07/12 12:31:46;;;;;;;25.70;5.38;;;;;;;;;;5053689;28;20410;-61
2023/07/12 12:34:15;;;;;;;36.15;7.20;;;;;;;;;;5063370;28;20486;-61
2023/07/12 12:37:15;;;;;;;48.88;7.45;;;;;;;;;;5047011;28;20110;-63
2023/07/12 12:39:47;;;;;;;57.35;8.50;;;;;;;;;;5009784;28;20887;-61
2023/07/12 12:42:17;;;;;;;27.80;7.15;;;;;;;;;;4994318;28;20054;-60
2023/07/12 12:44:45;;;;;;;37.03;7.53;;;;;;;;;;4994946;28;20045;-62
2023/07/12 12:47:14;;;;;;;51.05;7.45;;;;;;;;;;5006596;28;20052;-62
2023/07/12 12:49:43;;;;;;;27.67;5.65;;;;;;;;;;4993808;28;20092;-61
2023/07/12 12:52:28;;;;;;;73.43;7.88;;;;;;;;;;5010156;28;20504;-61
2023/07/12 12:54:59;;;;;;;47.03;6.95;;;;;;;;;;4987856;28;20041;-61
2023/07/12 12:57:30;;;;;;;;;;;;;;;;;;5008545;28;20042;-61
2023/07/12 13:00:00;;;;;;;25.50;4.93;;;;;;;;;;5012616;28;19926;-61
2023/07/12 13:02:29;;;;;;;61.60;8.23;;;;;;;;;;4993522;28;20550;-62
2023/07/12 13:04:59;;;;;;;21.90;5.03;;;;;;;;;;5002106;28;20514;-61
2023/07/12 13:07:45;;;;;;;25.02;5.43;;;;;;;;;;5005986;28;20506;-60
2023/07/12 13:10:32;;;;;;;59.33;7.60;;;;;;;;;;5005506;28;20076;-64
2023/07/12 13:13:03;;;;;;;41.38;7.68;;;;;;;;;;5009170;28;20042;-61
2023/07/12 13:15:33;;;;;;;62.45;7.72;;;;;;;;;;5040037;28;20067;-60
2023/07/12 13:18:04;;;;;;;48.95;7.38;;;;;;;;;;5064869;28;20047;-61
2023/07/12 13:20:52;;;;;;;48.65;6.95;;;;;;;;;;5072205;28;20103;-61
2023/07/12 13:23:23;;;;;;;29.52;5.65;;;;;;;;;;5052342;28;20044;-60
2023/07/12 13:25:51;;;;;;;35.45;5.97;;;;;;;;;;5069086;28;20036;-60
2023/07/12 13:28:18;;;;;;;29.85;6.38;;;;;;;;;;5053361;28;20086;-60
2023/07/12 13:30:45;;;;;;;48.58;7.07;;;;;;;;;;5069705;28;20066;-60
2023/07/12 13:33:16;;;;;;;39.92;6.43;;;;;;;;;;5054726;28;20500;-61
2023/07/12 13:35:43;;;;;;;50.35;7.78;;;;;;;;;;5071239;28;20044;-60
2023/07/12 13:38:13;;;;;;;57.78;8.15;;;;;;;;;;5069652;28;20028;-60
2023/07/12 13:40:43;;;;;;;36.35;6.70;;;;;;;;;;5052490;28;20060;-62
2023/07/12 13:43:29;;;;;;;100.88;11.20;;;;;;;;;;5069310;28;20041;-61
2023/07/12 13:46:16;;;;;;;38.95;7.13;;;;;;;;;;5069924;28;20036;-60
2023/07/12 13:48:43;;;;;;;46.17;7.20;;;;;;;;;;5052859;28;20592;-61
2023/07/12 13:51:17;;;;;;;35.13;6.40;;;;;;;;;;5071685;28;20401;-62
2023/07/12 13:53:44;;;;;;;43.28;7.20;;;;;;;;;;5050091;28;20094;-61
2023/07/12 13:56:11;;;;;;;21.30;5.95;;;;;;;;;;5071279;28;20106;-60
2023/07/12 13:58:40;;;;;;;98.75;10.20;;;;;;;;;;5067414;28;20048;-60
2023/07/12 14:01:28;;;;;;;35.95;7.10;;;;;;;;;;5046179;28;20756;-60
2023/07/12 14:04:14;;;;;;;46.63;8.38;;;;;;;;;;5062764;28;20075;-60
2023/07/12 14:06:45;;;;;;;44.58;7.72;;;;;;;;;;5061860;28;20056;-60
2023/07/12 14:09:17;;;;;;;54.22;8.00;;;;;;;;;;5051508;28;20067;-59
2023/07/12 14:11:44;;;;;;;46.42;7.90;;;;;;;;;;5051176;28;20064;-60
2023/07/12 14:14:12;;;;;;;52.60;7.90;;;;;;;;;;5060178;28;20474;-60
2023/07/12 14:16:39;;;;;;;47.72;7.85;;;;;;;;;;5051562;28;20044;-60
2023/07/12 14:19:05;;;;;;;67.95;9.05;;;;;;;;;;5062179;28;20032;-59
2023/07/12 14:21:32;;;;;;;82.38;9.80;;;;;;;;;;5045905;28;20143;-64
2023/07/12 14:23:59;;;;;;;173.68;160.02;;;;;;;;;;5062736;28;20402;-63
2023/07/12 14:26:25;;;;;;;105.00;94.18;;;;;;;;;;5063234;28;20098;-66
2023/07/12 14:28:53;;;;;;;58.85;41.30;;;;;;;;;;5057654;28;20044;-66
2023/07/12 14:31:25;;;;;;;60.45;32.58;;;;;;;;;;5045706;28;20098;-64
2023/07/12 14:33:52;;;;;;;54.38;22.73;;;;;;;;;;5052552;28;20067;-67
2023/07/12 14:36:20;;;;;;;66.28;28.65;;;;;;;;;;5061681;28;20068;-64
2023/07/12 14:38:47;;;;;;;54.05;30.33;;;;;;;;;;5052870;28;20098;-61
2023/07/12 14:41:19;;;;;;;88.05;74.03;;;;;;;;;;5066819;28;20151;-68